createdAt,value
2023-05-22T00:01:12.160Z,15.25
2023-05-22T00:06:10.152Z,16.40
2023-05-22T00:08:37.293Z,16.48
2023-05-22T00:11:05.056Z,17.67
2023-05-22T00:13:32.229Z,18.42
2023-05-22T00:15:59.366Z,17.50
2023-05-22T00:18:27.120Z,16.58
2023-05-22T00:20:54.290Z,18.90
2023-05-22T00:23:22.036Z,19.42
2023-05-22T00:25:50.677Z,18.45
2023-05-22T00:28:17.841Z,17.95
2023-05-22T00:30:45.010Z,18.05
2023-05-22T00:33:12.403Z,18.95
2023-05-22T00:35:39.625Z,18.52
2023-05-22T00:38:06.749Z,18.70
2023-05-22T00:40:33.968Z,18.13
2023-05-22T00:43:07.813Z,17.92
2023-05-22T00:45:34.995Z,18.77
2023-05-22T00:48:02.244Z,18.33
2023-05-22T00:50:29.573Z,18.80
2023-05-22T00:52:57.777Z,18.30
2023-05-22T00:55:24.896Z,19.92
2023-05-22T00:57:52.305Z,21.02
2023-05-22T01:00:19.537Z,21.25
2023-05-22T01:02:46.861Z,20.08
2023-05-22T01:05:18.121Z,22.55
2023-05-22T01:07:48.405Z,21.27
2023-05-22T01:10:15.709Z,20.30
2023-05-22T01:12:55.923Z,21.45
2023-05-22T01:15:29.135Z,21.20
2023-05-22T01:18:04.415Z,22.50
2023-05-22T01:20:34.493Z,20.35
2023-05-22T01:23:10.577Z,20.67
2023-05-22T01:25:43.555Z,20.35
2023-05-22T01:28:37.889Z,21.15
2023-05-22T01:31:12.535Z,20.77
2023-05-22T01:33:44.504Z,20.48
2023-05-22T01:36:13.592Z,21.65
2023-05-22T01:38:42.345Z,21.60
2023-05-22T01:41:10.103Z,21.40
2023-05-22T01:43:37.631Z,20.75
2023-05-22T01:46:05.987Z,21.95
2023-05-22T01:51:11.290Z,22.35
2023-05-22T01:53:42.269Z,20.50
2023-05-22T01:56:15.239Z,21.48
2023-05-22T01:59:01.486Z,21.30
2023-05-22T02:01:31.025Z,21.30
2023-05-22T02:03:59.610Z,20.48
2023-05-22T02:06:29.558Z,22.30
2023-05-22T02:08:56.745Z,22.25
2023-05-22T02:11:26.793Z,20.88
2023-05-22T02:13:53.963Z,23.05
2023-05-22T02:16:22.210Z,24.85
2023-05-22T02:18:49.583Z,23.55
2023-05-22T02:21:16.716Z,24.90
2023-05-22T02:23:43.901Z,23.30
2023-05-22T02:26:10.601Z,24.48
2023-05-22T02:28:37.961Z,24.27
2023-05-22T02:31:04.792Z,26.15
2023-05-22T02:33:31.511Z,26.25
2023-05-22T02:35:58.310Z,25.60
2023-05-22T02:38:25.023Z,26.08
2023-05-22T02:40:51.830Z,26.58
2023-05-22T02:43:18.639Z,26.27
2023-05-22T02:45:45.554Z,26.42
2023-05-22T02:48:13.168Z,26.48
2023-05-22T02:50:40.373Z,26.13
2023-05-22T02:53:08.468Z,25.45
2023-05-22T02:55:35.276Z,26.60
2023-05-22T02:58:03.281Z,26.35
2023-05-22T03:00:29.977Z,26.00
2023-05-22T03:02:56.809Z,26.60
2023-05-22T03:05:23.617Z,26.38
2023-05-22T03:07:50.580Z,27.20
2023-05-22T03:10:17.667Z,26.00
2023-05-22T03:12:45.668Z,24.50
2023-05-22T03:15:12.478Z,26.13
2023-05-22T03:17:39.242Z,25.13
2023-05-22T03:20:08.999Z,25.85
2023-05-22T03:22:35.828Z,24.08
2023-05-22T03:25:02.612Z,23.83
2023-05-22T03:27:29.756Z,23.77
2023-05-22T03:29:56.972Z,21.95
2023-05-22T03:32:24.113Z,23.27
2023-05-22T03:34:50.862Z,25.00
2023-05-22T03:37:17.700Z,24.00
2023-05-22T03:39:44.867Z,23.02
2023-05-22T03:42:13.393Z,24.48
2023-05-22T03:47:06.762Z,21.88
2023-05-22T03:49:33.580Z,22.52
2023-05-22T03:52:00.831Z,22.48
2023-05-22T03:54:27.544Z,23.42
2023-05-22T03:56:54.265Z,22.63
2023-05-22T03:59:21.678Z,22.67
2023-05-22T04:01:48.831Z,22.90
2023-05-22T04:04:16.582Z,23.00
2023-05-22T04:06:43.638Z,23.03
2023-05-22T04:09:11.869Z,22.98
2023-05-22T04:11:42.463Z,23.00
2023-05-22T04:14:09.852Z,23.17
2023-05-22T04:16:36.710Z,23.23
2023-05-22T04:19:03.807Z,22.13
2023-05-22T04:21:34.066Z,22.23
2023-05-22T04:24:07.359Z,21.52
2023-05-22T04:26:34.312Z,23.50
2023-05-22T04:29:01.237Z,22.45
2023-05-22T04:31:28.429Z,23.55
2023-05-22T04:33:55.917Z,22.88
2023-05-22T04:36:25.913Z,22.90
2023-05-22T04:38:54.050Z,23.85
2023-05-22T04:41:22.626Z,24.02
2023-05-22T04:43:49.827Z,24.27
2023-05-22T04:46:16.603Z,24.23
2023-05-22T04:48:43.371Z,24.98
2023-05-22T04:51:10.357Z,26.20
2023-05-22T04:53:38.600Z,24.25
2023-05-22T04:56:06.346Z,24.63
2023-05-22T04:58:33.310Z,26.27
2023-05-22T05:01:00.187Z,24.02
2023-05-22T05:03:28.363Z,27.13
2023-05-22T05:05:55.226Z,24.10
2023-05-22T05:08:21.964Z,24.38
2023-05-22T05:10:48.870Z,25.73
2023-05-22T05:13:15.737Z,26.13
2023-05-22T05:15:42.411Z,24.90
2023-05-22T05:18:09.170Z,26.20
2023-05-22T05:20:37.071Z,25.45
2023-05-22T05:23:03.904Z,25.58
2023-05-22T05:25:30.802Z,25.33
2023-05-22T05:27:57.700Z,23.88
2023-05-22T05:30:24.428Z,25.20
2023-05-22T05:32:51.204Z,24.35
2023-05-22T05:35:17.960Z,23.73
2023-05-22T05:37:44.675Z,24.88
2023-05-22T05:40:12.036Z,23.17
2023-05-22T05:42:38.767Z,23.92
2023-05-22T05:45:05.804Z,21.90
2023-05-22T05:47:32.922Z,22.65
2023-05-22T05:50:00.788Z,24.77
2023-05-22T05:52:32.402Z,24.25
2023-05-22T05:55:02.346Z,22.75
2023-05-22T05:57:31.216Z,20.90
2023-05-22T05:59:58.921Z,21.55
2023-05-22T06:02:25.835Z,23.08
2023-05-22T06:04:53.756Z,21.52
2023-05-22T06:07:21.005Z,23.92
2023-05-22T06:09:47.750Z,21.05
2023-05-22T06:12:14.556Z,23.58
2023-05-22T06:14:42.243Z,22.85
2023-05-22T06:17:11.682Z,22.67
2023-05-22T06:19:38.625Z,20.02
2023-05-22T06:22:05.545Z,21.45
2023-05-22T06:24:32.611Z,21.83
2023-05-22T06:27:00.173Z,22.38
2023-05-22T06:29:27.011Z,23.45
2023-05-22T06:31:53.762Z,22.38
2023-05-22T06:34:22.421Z,19.58
2023-05-22T06:36:52.106Z,20.02
2023-05-22T06:39:24.778Z,20.73
2023-05-22T06:41:51.449Z,20.42
2023-05-22T06:44:18.160Z,19.85
2023-05-22T06:46:45.066Z,20.77
2023-05-22T06:49:11.807Z,20.50
2023-05-22T06:51:38.549Z,20.27
2023-05-22T06:54:07.182Z,20.00
2023-05-22T06:56:34.001Z,20.35
2023-05-22T06:59:01.115Z,20.65
2023-05-22T07:01:29.360Z,20.75
2023-05-22T07:04:05.107Z,22.05
2023-05-22T07:06:33.632Z,21.35
2023-05-22T07:11:27.450Z,20.85
2023-05-22T07:13:54.216Z,21.73
2023-05-22T07:16:21.005Z,21.02
2023-05-22T07:18:47.762Z,22.77
2023-05-22T07:21:14.501Z,21.33
2023-05-22T07:23:41.237Z,23.63
2023-05-22T07:26:08.260Z,22.35
2023-05-22T07:28:36.110Z,21.38
2023-05-22T07:31:02.891Z,23.38
2023-05-22T07:33:29.651Z,22.02
2023-05-22T07:35:57.430Z,21.42
2023-05-22T07:38:24.229Z,21.75
2023-05-22T07:40:51.006Z,21.88
2023-05-22T07:43:17.804Z,21.02
2023-05-22T07:45:44.802Z,20.02
2023-05-22T07:48:11.970Z,19.58
2023-05-22T07:50:38.829Z,20.25
2023-05-22T07:53:06.603Z,21.00
2023-05-22T07:55:33.330Z,19.10
2023-05-22T07:58:00.189Z,18.38
2023-05-22T08:00:27.264Z,18.90
2023-05-22T08:02:54.030Z,19.67
2023-05-22T08:05:22.046Z,19.20
2023-05-22T08:07:49.438Z,21.70
2023-05-22T08:10:17.550Z,20.27
2023-05-22T08:12:44.570Z,18.52
2023-05-22T08:15:11.615Z,19.75
2023-05-22T08:17:39.309Z,19.27
2023-05-22T08:20:07.261Z,18.95
2023-05-22T08:22:34.762Z,19.95
2023-05-22T08:25:02.022Z,20.43
2023-05-22T08:27:30.210Z,19.27
2023-05-22T08:29:57.393Z,20.02
2023-05-22T08:32:24.528Z,20.73
2023-05-22T08:34:51.688Z,19.48
2023-05-22T08:37:18.805Z,19.65
2023-05-22T08:39:46.019Z,18.48
2023-05-22T08:42:13.219Z,20.73
2023-05-22T08:44:40.586Z,20.25
2023-05-22T08:47:11.266Z,21.10
2023-05-22T08:49:39.969Z,22.95
2023-05-22T08:52:23.628Z,20.95
2023-05-22T08:54:53.525Z,21.42
2023-05-22T08:57:21.517Z,20.83
2023-05-22T08:59:49.072Z,21.67
2023-05-22T09:02:17.369Z,22.97
2023-05-22T09:04:44.593Z,21.85
2023-05-22T09:07:11.883Z,22.13
2023-05-22T09:09:42.336Z,24.48
2023-05-22T09:12:10.477Z,23.27
2023-05-22T09:14:41.617Z,22.33
2023-05-22T09:17:11.899Z,24.48
2023-05-22T09:19:39.757Z,23.80
2023-05-22T09:22:07.061Z,23.60
2023-05-22T09:24:44.107Z,22.33
2023-05-22T09:27:11.690Z,19.73
2023-05-22T09:30:08.673Z,21.10
2023-05-22T09:32:36.132Z,20.23
2023-05-22T09:35:04.794Z,25.40
2023-05-22T09:37:35.514Z,24.92
2023-05-22T09:40:11.145Z,23.10
2023-05-22T09:42:38.046Z,19.52
2023-05-22T09:45:06.497Z,19.60
2023-05-22T09:50:07.416Z,21.75
2023-05-22T09:52:35.346Z,21.70
2023-05-22T09:55:04.709Z,23.55
2023-05-22T09:57:45.385Z,22.42
2023-05-22T10:00:15.550Z,23.98
2023-05-22T10:02:46.044Z,24.38
2023-05-22T10:05:21.348Z,23.75
2023-05-22T10:07:50.200Z,22.90
2023-05-22T10:10:19.096Z,22.80
2023-05-22T10:12:51.532Z,20.67
2023-05-22T10:15:18.994Z,20.13
2023-05-22T10:17:46.587Z,21.70
2023-05-22T10:20:14.499Z,19.20
2023-05-22T10:22:42.137Z,17.85
2023-05-22T10:25:10.727Z,14.80
2023-05-22T10:27:38.710Z,12.07
2023-05-22T10:30:11.891Z,13.20
2023-05-22T10:32:44.974Z,11.45
2023-05-22T10:35:31.375Z,11.90
2023-05-22T10:38:28.201Z,13.45
2023-05-22T10:40:56.197Z,11.40
2023-05-22T10:43:23.685Z,12.60
2023-05-22T10:46:02.096Z,12.37
2023-05-22T10:48:29.436Z,11.73
2023-05-22T10:50:57.597Z,10.52
2023-05-22T10:53:28.897Z,11.32
2023-05-22T10:55:56.992Z,13.82
2023-05-22T10:58:30.844Z,13.50
2023-05-22T11:01:17.132Z,12.52
2023-05-22T11:03:54.331Z,10.85
2023-05-22T11:06:31.176Z,13.52
2023-05-22T11:08:58.405Z,12.10
2023-05-22T11:11:26.288Z,14.70
2023-05-22T11:13:54.106Z,14.45
2023-05-22T11:16:22.543Z,16.50
2023-05-22T11:18:49.777Z,17.55
2023-05-22T11:21:16.992Z,17.02
2023-05-22T11:23:44.165Z,15.45
2023-05-22T11:26:22.569Z,17.80
2023-05-22T11:28:51.874Z,15.20
2023-05-22T11:31:19.540Z,14.55
2023-05-22T11:33:48.332Z,15.25
2023-05-22T11:36:16.194Z,15.18
2023-05-22T11:38:43.814Z,14.55
2023-05-22T11:41:12.821Z,15.43
2023-05-22T11:43:39.997Z,14.07
2023-05-22T11:46:11.112Z,13.20
2023-05-22T11:48:41.231Z,14.77
2023-05-22T11:51:09.341Z,12.98
2023-05-22T11:53:37.061Z,11.18
2023-05-22T11:56:04.820Z,11.80
2023-05-22T11:58:32.655Z,13.02
2023-05-22T12:01:03.802Z,10.40
2023-05-22T12:03:31.457Z,9.60
2023-05-22T12:05:59.139Z,9.70
2023-05-22T12:08:26.634Z,10.43
2023-05-22T12:10:55.204Z,11.60
2023-05-22T12:13:29.970Z,11.13
2023-05-22T12:16:00.959Z,12.95
2023-05-22T12:18:28.865Z,12.45
2023-05-22T12:20:56.013Z,12.65
2023-05-22T12:23:26.669Z,11.38
2023-05-22T12:26:00.992Z,11.65
2023-05-22T12:28:34.072Z,11.85
2023-05-22T12:31:00.889Z,14.20
2023-05-22T12:33:31.452Z,11.25
2023-05-22T12:35:58.942Z,11.02
2023-05-22T12:38:34.063Z,10.80
2023-05-22T12:41:02.518Z,12.35
2023-05-22T12:43:29.647Z,12.43
2023-05-22T12:45:56.800Z,10.52
2023-05-22T12:48:24.055Z,9.32
2023-05-22T12:50:51.350Z,9.70
2023-05-22T12:53:18.538Z,9.10
2023-05-22T12:55:45.811Z,9.35
2023-05-22T12:58:13.029Z,9.93
2023-05-22T13:00:40.572Z,9.60
2023-05-22T13:03:08.409Z,10.27
2023-05-22T13:05:35.886Z,9.35
2023-05-22T13:08:03.118Z,9.27
2023-05-22T13:10:30.670Z,9.05
2023-05-22T13:12:57.815Z,8.32
2023-05-22T13:15:29.338Z,7.75
2023-05-22T13:17:56.973Z,6.88
2023-05-22T13:20:25.089Z,6.82
2023-05-22T13:22:52.353Z,6.97
2023-05-22T13:25:20.568Z,7.30
2023-05-22T13:27:50.892Z,7.70
2023-05-22T13:30:18.115Z,7.13
2023-05-22T13:32:45.383Z,6.72
2023-05-22T13:35:12.170Z,7.78
2023-05-22T13:37:39.336Z,7.40
2023-05-22T13:40:08.075Z,6.70
2023-05-22T13:42:36.654Z,7.22
2023-05-22T13:45:04.605Z,7.07
2023-05-22T13:47:31.635Z,7.47
2023-05-22T13:49:58.365Z,6.97
2023-05-22T13:52:25.285Z,6.60
2023-05-22T13:54:52.390Z,6.40
2023-05-22T13:57:19.106Z,7.13
2023-05-22T13:59:46.029Z,6.72
2023-05-22T14:02:14.173Z,7.13
2023-05-22T14:04:43.197Z,7.43
2023-05-22T14:07:10.077Z,6.80
2023-05-22T14:09:36.813Z,6.72
2023-05-22T14:12:03.788Z,6.55
2023-05-22T14:14:30.500Z,6.57
2023-05-22T14:16:57.250Z,6.22
2023-05-22T14:19:24.614Z,7.15
2023-05-22T14:21:51.796Z,8.00
2023-05-22T14:24:18.648Z,7.47
2023-05-22T14:26:45.378Z,8.55
2023-05-22T14:29:12.520Z,8.18
2023-05-22T14:31:51.994Z,7.35
2023-05-22T14:34:18.912Z,7.57
2023-05-22T14:36:46.432Z,8.63
2023-05-22T14:39:13.114Z,7.77
2023-05-22T14:41:39.776Z,7.07
2023-05-22T14:44:06.646Z,7.80
2023-05-22T14:46:35.534Z,7.25
2023-05-22T14:49:02.381Z,6.75
2023-05-22T14:51:29.218Z,7.10
2023-05-22T14:53:57.301Z,6.47
2023-05-22T14:56:25.394Z,6.43
2023-05-22T14:58:52.203Z,6.03
2023-05-22T15:01:21.027Z,6.15
2023-05-22T15:03:47.876Z,5.50
2023-05-22T15:06:15.078Z,6.10
2023-05-22T15:08:41.823Z,6.32
2023-05-22T15:11:08.507Z,5.30
2023-05-22T15:13:35.248Z,5.05
2023-05-22T15:16:01.932Z,4.93
2023-05-22T15:18:28.676Z,4.85
2023-05-22T15:20:55.600Z,4.72
2023-05-22T15:23:25.237Z,5.03
2023-05-22T15:25:55.121Z,4.97
2023-05-22T15:28:21.932Z,5.13
2023-05-22T15:30:48.923Z,5.60
2023-05-22T15:33:16.066Z,4.68
2023-05-22T15:35:46.567Z,4.30
2023-05-22T15:38:13.868Z,4.32
2023-05-22T15:40:41.396Z,4.03
2023-05-22T15:43:08.164Z,3.95
2023-05-22T15:45:36.801Z,4.25
2023-05-22T15:48:05.417Z,3.40
2023-05-22T15:50:33.750Z,3.75
2023-05-22T15:55:28.183Z,4.07
2023-05-22T15:57:55.068Z,3.70
2023-05-22T16:00:21.902Z,3.30
2023-05-22T16:02:49.317Z,3.25
2023-05-22T16:05:17.798Z,3.20
2023-05-22T16:10:11.548Z,3.03
2023-05-22T16:12:41.665Z,3.40
2023-05-22T16:15:10.953Z,2.95
2023-05-22T16:17:39.440Z,2.92
2023-05-22T16:20:07.285Z,4.15
2023-05-22T16:22:47.372Z,3.28
2023-05-22T16:25:16.931Z,3.03
2023-05-22T16:27:44.185Z,2.95
2023-05-22T16:30:12.506Z,3.58
2023-05-22T16:32:39.325Z,3.60
2023-05-22T16:35:06.463Z,3.83
2023-05-22T16:37:33.909Z,3.47
2023-05-22T16:40:00.953Z,3.43
2023-05-22T16:42:27.762Z,3.40
2023-05-22T16:44:54.506Z,3.38
2023-05-22T16:47:22.071Z,3.10
2023-05-22T16:49:49.406Z,3.63
2023-05-22T16:52:18.074Z,2.70
2023-05-22T16:54:44.871Z,3.25
2023-05-22T16:57:11.571Z,3.15
2023-05-22T16:59:38.342Z,3.63
2023-05-22T17:02:05.452Z,3.40
2023-05-22T17:04:32.193Z,3.92
2023-05-22T17:06:58.905Z,3.00
2023-05-22T17:09:27.441Z,3.63
2023-05-22T17:11:54.596Z,3.45
2023-05-22T17:14:22.127Z,3.65
2023-05-22T17:16:49.251Z,3.83
2023-05-22T17:19:17.698Z,4.22
2023-05-22T17:21:44.657Z,4.43
2023-05-22T17:24:14.645Z,3.92
2023-05-22T17:26:42.052Z,4.18
2023-05-22T17:29:10.826Z,4.82
2023-05-22T17:31:39.441Z,4.25
2023-05-22T17:34:06.860Z,4.95
2023-05-22T17:36:35.036Z,4.47
2023-05-22T17:39:01.847Z,4.47
2023-05-22T17:41:28.624Z,5.00
2023-05-22T17:43:57.112Z,5.03
2023-05-22T17:46:23.939Z,4.55
2023-05-22T17:48:51.179Z,5.00
2023-05-22T17:51:18.027Z,5.50
2023-05-22T17:53:44.775Z,5.22
2023-05-22T17:56:12.669Z,5.50
2023-05-22T17:58:39.542Z,4.93
2023-05-22T18:01:06.415Z,4.85
2023-05-22T18:03:33.942Z,5.20
2023-05-22T18:06:00.912Z,5.32
2023-05-22T18:08:28.210Z,5.45
2023-05-22T18:10:55.806Z,5.10
2023-05-22T18:13:22.663Z,5.07
2023-05-22T18:15:51.295Z,5.25
2023-05-22T18:18:18.027Z,5.55
2023-05-22T18:20:46.139Z,5.45
2023-05-22T18:23:13.004Z,7.10
2023-05-22T18:25:39.766Z,5.90
2023-05-22T18:28:06.569Z,5.68
2023-05-22T18:30:33.409Z,5.75
2023-05-22T18:33:00.818Z,5.10
2023-05-22T18:35:28.749Z,5.47
2023-05-22T18:37:55.525Z,5.45
2023-05-22T18:40:22.259Z,5.65
2023-05-22T18:42:49.017Z,5.88
2023-05-22T18:45:16.234Z,5.45
2023-05-22T18:47:43.139Z,5.40
2023-05-22T18:50:10.534Z,6.10
2023-05-22T18:52:37.909Z,5.72
2023-05-22T18:55:05.746Z,5.15
2023-05-22T18:57:33.573Z,5.45
2023-05-22T19:00:00.288Z,4.60
2023-05-22T19:02:27.032Z,4.80
2023-05-22T19:04:53.854Z,5.57
2023-05-22T19:07:21.232Z,5.18
2023-05-22T19:09:49.595Z,6.13
2023-05-22T19:14:43.103Z,5.32
2023-05-22T19:17:10.309Z,5.43
2023-05-22T19:19:37.315Z,5.05
2023-05-22T19:22:05.219Z,5.00
2023-05-22T19:24:31.998Z,5.78
2023-05-22T19:26:58.735Z,5.00
2023-05-22T19:29:25.517Z,5.78
2023-05-22T19:31:52.227Z,5.80
2023-05-22T19:34:19.007Z,6.90
2023-05-22T19:36:46.114Z,5.88
2023-05-22T19:39:12.939Z,6.32
2023-05-22T19:41:39.743Z,5.32
2023-05-22T19:44:06.578Z,6.40
2023-05-22T19:46:33.355Z,6.57
2023-05-22T19:49:00.152Z,6.72
2023-05-22T19:51:27.859Z,6.38
2023-05-22T19:53:54.685Z,6.93
2023-05-22T19:56:21.401Z,6.18
2023-05-22T19:58:48.274Z,7.13
2023-05-22T20:01:15.132Z,7.50
2023-05-22T20:03:49.195Z,7.97
2023-05-22T20:06:16.146Z,8.73
2023-05-22T20:08:44.149Z,10.07
2023-05-22T20:11:11.009Z,9.88
2023-05-22T20:13:37.737Z,11.02
2023-05-22T20:16:11.464Z,10.38
2023-05-22T20:18:41.346Z,9.85
2023-05-22T20:21:09.724Z,9.95
2023-05-22T20:26:03.450Z,10.15
2023-05-22T20:28:30.762Z,9.90
2023-05-22T20:30:57.781Z,10.23
2023-05-22T20:33:24.525Z,8.60
2023-05-22T20:35:54.602Z,9.95
2023-05-22T20:38:22.377Z,10.13
2023-05-22T20:40:55.750Z,8.48
2023-05-22T20:43:22.429Z,8.07
2023-05-22T20:45:49.210Z,6.35
2023-05-22T20:48:16.548Z,6.07
2023-05-22T20:50:43.458Z,4.72
2023-05-22T20:53:10.247Z,4.93
2023-05-22T20:55:37.120Z,4.38
2023-05-22T20:58:03.905Z,4.40
2023-05-22T21:00:30.607Z,4.28
2023-05-22T21:02:58.493Z,3.60
2023-05-22T21:05:26.210Z,3.33
2023-05-22T21:07:53.012Z,3.45
2023-05-22T21:10:19.793Z,3.92
2023-05-22T21:12:46.560Z,3.55
2023-05-22T21:15:13.321Z,3.40
2023-05-22T21:17:40.195Z,3.30
2023-05-22T21:20:08.078Z,3.67
2023-05-22T21:22:34.849Z,3.08
2023-05-22T21:25:01.566Z,3.55
2023-05-22T21:27:28.311Z,3.10
2023-05-22T21:29:55.000Z,3.65
2023-05-22T21:32:21.866Z,3.97
2023-05-22T21:34:48.619Z,3.78
2023-05-22T21:37:15.375Z,3.58
2023-05-22T21:39:42.076Z,3.35
2023-05-22T21:42:08.900Z,3.53
2023-05-22T21:44:35.925Z,3.42
2023-05-22T21:47:02.837Z,3.60
2023-05-22T21:49:29.558Z,3.47
2023-05-22T21:51:56.321Z,3.50
2023-05-22T21:54:23.436Z,4.38
2023-05-22T21:56:50.608Z,4.13
2023-05-22T21:59:17.844Z,4.43
2023-05-22T22:01:45.076Z,4.43
2023-05-22T22:04:12.319Z,4.47
2023-05-22T22:06:39.212Z,4.90
2023-05-22T22:09:05.947Z,4.60
2023-05-22T22:11:33.092Z,4.85
2023-05-22T22:13:59.827Z,4.90
2023-05-22T22:16:27.822Z,5.47
2023-05-22T22:18:54.861Z,5.03
2023-05-22T22:21:22.780Z,4.80
2023-05-22T22:23:49.523Z,5.05
2023-05-22T22:26:16.408Z,5.18
2023-05-22T22:28:43.221Z,5.00
2023-05-22T22:31:10.070Z,5.63
2023-05-22T22:33:37.195Z,6.20
2023-05-22T22:36:04.376Z,5.50
2023-05-22T22:38:32.903Z,5.97
2023-05-22T22:41:01.278Z,6.30
2023-05-22T22:43:28.052Z,6.18
2023-05-22T22:45:55.926Z,5.32
2023-05-22T22:48:22.909Z,6.00
2023-05-22T22:50:50.092Z,6.60
2023-05-22T22:53:16.983Z,6.78
2023-05-22T22:55:44.399Z,6.28
2023-05-22T22:58:11.289Z,6.75
2023-05-22T23:00:38.386Z,6.85
2023-05-22T23:03:05.182Z,7.00
2023-05-22T23:05:32.096Z,7.50
2023-05-22T23:08:01.899Z,7.95
2023-05-22T23:10:29.330Z,7.25
2023-05-22T23:12:57.650Z,7.88
2023-05-22T23:17:52.106Z,8.13
2023-05-22T23:20:19.531Z,7.22
2023-05-22T23:22:46.705Z,7.65
2023-05-22T23:25:13.826Z,7.53
2023-05-22T23:27:40.973Z,7.88
2023-05-22T23:30:08.950Z,7.88
2023-05-22T23:32:35.872Z,7.90
2023-05-22T23:35:02.641Z,7.43
2023-05-22T23:37:29.334Z,7.53
2023-05-22T23:39:56.035Z,8.07
2023-05-22T23:42:22.971Z,8.30
2023-05-22T23:44:49.748Z,9.48
2023-05-22T23:47:18.001Z,9.63
2023-05-22T23:49:45.707Z,10.32
2023-05-22T23:52:13.081Z,9.02
2023-05-22T23:54:40.350Z,10.93
2023-05-22T23:57:07.566Z,9.20
2023-05-22T23:59:34.849Z,10.20
